createdAt,value
2018-11-07T00:02:01.204Z,152.40
2018-11-07T00:04:55.332Z,139.35
2018-11-07T00:07:48.983Z,141.23
2018-11-07T00:11:01.212Z,139.60
2018-11-07T00:13:55.132Z,143.57
2018-11-07T00:16:48.960Z,141.57
2018-11-07T00:19:42.562Z,131.73
2018-11-07T00:22:36.613Z,139.37
2018-11-07T00:25:30.405Z,146.17
2018-11-07T00:28:24.467Z,147.87
2018-11-07T00:31:18.347Z,146.43
2018-11-07T00:34:13.561Z,141.20
2018-11-07T00:37:06.942Z,143.15
2018-11-07T00:40:00.221Z,143.13
2018-11-07T00:42:54.261Z,135.30
2018-11-07T00:45:47.727Z,133.47
2018-11-07T00:48:41.432Z,144.77
2018-11-07T00:51:35.171Z,140.37
2018-11-07T00:54:29.149Z,154.23
2018-11-07T00:57:25.181Z,159.20
2018-11-07T01:00:23.853Z,157.00
2018-11-07T01:03:17.767Z,147.30
2018-11-07T01:06:14.535Z,148.75
2018-11-07T01:09:08.397Z,142.03
2018-11-07T01:12:01.832Z,155.77
2018-11-07T01:14:55.606Z,153.32
2018-11-07T01:17:49.071Z,140.73
2018-11-07T01:20:42.746Z,146.47
2018-11-07T01:23:36.830Z,148.23
2018-11-07T01:26:30.271Z,147.57
2018-11-07T01:29:24.300Z,158.87
2018-11-07T01:32:18.131Z,158.12
2018-11-07T01:35:12.238Z,147.35
2018-11-07T01:38:06.304Z,137.70
2018-11-07T01:40:59.913Z,149.40
2018-11-07T01:43:53.678Z,143.13
2018-11-07T01:46:47.936Z,146.37
2018-11-07T01:49:42.120Z,146.87
2018-11-07T01:52:38.966Z,154.33
2018-11-07T01:55:33.556Z,172.40
2018-11-07T01:58:27.844Z,157.50
2018-11-07T02:01:21.769Z,170.03
2018-11-07T02:04:15.496Z,165.67
2018-11-07T02:07:08.747Z,160.47
2018-11-07T02:10:03.657Z,156.53
2018-11-07T02:12:57.740Z,154.35
2018-11-07T02:15:51.713Z,152.97
2018-11-07T02:18:46.354Z,163.63
2018-11-07T02:21:39.983Z,158.03
2018-11-07T02:24:33.448Z,159.20
2018-11-07T02:27:27.127Z,163.63
2018-11-07T02:30:22.843Z,168.13
2018-11-07T02:33:18.967Z,173.20
2018-11-07T02:36:12.955Z,156.45
2018-11-07T02:39:06.852Z,149.90
2018-11-07T02:42:03.928Z,155.33
2018-11-07T02:44:57.754Z,153.53
2018-11-07T02:47:51.432Z,162.92
2018-11-07T02:50:47.141Z,173.53
2018-11-07T02:53:40.804Z,173.37
2018-11-07T02:56:56.737Z,172.60
2018-11-07T02:59:28.462Z,167.40
2018-11-07T03:02:22.341Z,177.30
2018-11-07T03:05:19.664Z,166.12
2018-11-07T03:08:10.513Z,168.90
2018-11-07T03:11:08.658Z,168.00
2018-11-07T03:14:02.352Z,164.63
2018-11-07T03:16:56.236Z,160.73
2018-11-07T03:19:51.536Z,161.83
2018-11-07T03:22:45.617Z,160.47
2018-11-07T03:25:39.195Z,174.43
2018-11-07T03:28:37.878Z,168.73
2018-11-07T03:31:31.753Z,163.97
2018-11-07T03:34:30.339Z,166.68
2018-11-07T03:37:24.930Z,167.57
2018-11-07T03:40:18.716Z,163.87
2018-11-07T03:43:12.584Z,164.73
2018-11-07T03:46:06.382Z,163.20
2018-11-07T03:49:00.337Z,164.80
2018-11-07T03:51:54.313Z,159.67
2018-11-07T03:54:48.294Z,153.77
2018-11-07T03:57:44.981Z,164.37
2018-11-07T04:00:41.169Z,163.13
2018-11-07T04:03:35.143Z,168.72
2018-11-07T04:06:29.022Z,161.23
2018-11-07T04:09:23.101Z,158.72
2018-11-07T04:12:16.571Z,157.00
2018-11-07T04:15:15.326Z,165.83
2018-11-07T04:18:05.028Z,168.05
2018-11-07T04:21:00.046Z,167.07
2018-11-07T04:24:01.705Z,167.53
2018-11-07T04:26:56.292Z,166.20
2018-11-07T04:29:49.964Z,166.00
2018-11-07T04:32:44.044Z,163.57
2018-11-07T04:35:37.611Z,163.50
2018-11-07T04:38:31.499Z,163.93
2018-11-07T04:41:25.264Z,165.33
2018-11-07T04:44:18.941Z,168.17
2018-11-07T04:47:13.026Z,160.88
2018-11-07T04:50:06.585Z,160.03
2018-11-07T04:53:00.569Z,160.20
2018-11-07T04:55:54.136Z,170.17
2018-11-07T04:58:48.522Z,155.63
2018-11-07T05:01:44.649Z,164.70
2018-11-07T05:04:39.145Z,154.30
2018-11-07T05:07:35.839Z,162.10
2018-11-07T05:10:29.765Z,156.23
2018-11-07T05:13:23.640Z,161.43
2018-11-07T05:16:24.787Z,152.80
2018-11-07T05:19:27.360Z,154.90
2018-11-07T05:22:13.152Z,161.67
2018-11-07T05:25:07.032Z,155.32
2018-11-07T05:28:02.853Z,161.13
2018-11-07T05:30:57.343Z,157.22
2018-11-07T05:33:51.223Z,156.57
2018-11-07T05:36:48.372Z,163.43
2018-11-07T05:39:42.046Z,162.67
2018-11-07T05:42:36.433Z,158.20
2018-11-07T05:45:29.733Z,157.35
2018-11-07T05:48:23.469Z,157.30
2018-11-07T05:51:17.139Z,162.17
2018-11-07T05:54:12.758Z,153.50
2018-11-07T05:57:06.839Z,154.60
2018-11-07T06:00:00.920Z,157.03
2018-11-07T06:02:55.716Z,162.33
2018-11-07T06:05:49.903Z,147.72
2018-11-07T06:08:45.421Z,150.30
2018-11-07T06:11:41.543Z,156.67
2018-11-07T06:14:35.729Z,153.42
2018-11-07T06:17:29.602Z,151.37
2018-11-07T06:20:23.069Z,151.15
2018-11-07T06:23:16.747Z,155.22
2018-11-07T06:26:11.334Z,157.10
2018-11-07T06:29:05.007Z,157.23
2018-11-07T06:32:00.317Z,154.27
2018-11-07T06:34:59.573Z,152.63
2018-11-07T06:37:50.324Z,153.37
2018-11-07T06:40:44.111Z,146.10
2018-11-07T06:43:39.713Z,151.90
2018-11-07T06:46:33.700Z,144.75
2018-11-07T06:49:27.549Z,146.65
2018-11-07T06:52:22.392Z,150.45
2018-11-07T06:55:16.277Z,150.37
2018-11-07T06:58:10.332Z,152.53
2018-11-07T07:01:04.098Z,150.27
2018-11-07T07:03:58.513Z,148.40
2018-11-07T07:06:52.785Z,144.53
2018-11-07T07:09:46.649Z,152.75
2018-11-07T07:12:41.650Z,147.43
2018-11-07T07:15:35.017Z,158.47
2018-11-07T07:18:29.016Z,148.43
2018-11-07T07:21:25.562Z,144.50
2018-11-07T07:24:19.202Z,150.33
2018-11-07T07:27:13.273Z,153.50
2018-11-07T07:30:07.246Z,152.22
2018-11-07T07:33:02.740Z,150.97
2018-11-07T07:35:56.638Z,146.53
2018-11-07T07:38:50.206Z,148.22
2018-11-07T07:41:46.853Z,147.62
2018-11-07T07:44:39.696Z,140.37
2018-11-07T07:47:35.816Z,152.60
2018-11-07T07:50:29.153Z,146.15
2018-11-07T07:53:22.681Z,143.10
2018-11-07T07:56:16.769Z,144.40
2018-11-07T07:59:10.738Z,142.50
2018-11-07T08:02:04.517Z,144.50
2018-11-07T08:04:58.288Z,143.10
2018-11-07T08:07:52.266Z,133.73
2018-11-07T08:10:48.290Z,142.40
2018-11-07T08:13:42.296Z,145.28
2018-11-07T08:16:46.086Z,142.43
2018-11-07T08:19:43.539Z,145.80
2018-11-07T08:22:37.007Z,143.40
2018-11-07T08:25:30.781Z,145.22
2018-11-07T08:28:24.764Z,147.03
2018-11-07T08:31:19.765Z,137.62
2018-11-07T08:34:13.214Z,149.97
2018-11-07T08:37:06.805Z,143.37
2018-11-07T08:40:00.264Z,146.93
2018-11-07T08:42:54.039Z,137.45
2018-11-07T08:45:49.048Z,139.72
2018-11-07T08:48:44.968Z,139.03
2018-11-07T08:51:39.869Z,142.57
2018-11-07T08:54:33.671Z,140.03
2018-11-07T08:57:27.323Z,136.23
2018-11-07T09:00:27.333Z,143.80
2018-11-07T09:03:23.977Z,139.77
2018-11-07T09:06:17.952Z,140.03
2018-11-07T09:09:14.323Z,137.40
2018-11-07T09:12:08.088Z,141.20
2018-11-07T09:15:02.028Z,136.83
2018-11-07T09:17:55.508Z,141.20
2018-11-07T09:20:51.028Z,141.47
2018-11-07T09:23:44.999Z,135.90
2018-11-07T09:26:38.568Z,143.90
2018-11-07T09:29:32.343Z,140.40
2018-11-07T09:32:26.422Z,138.82
2018-11-07T09:35:22.245Z,134.78
2018-11-07T09:38:16.209Z,142.43
2018-11-07T09:41:09.799Z,130.75
2018-11-07T09:44:03.671Z,136.00
2018-11-07T09:46:57.239Z,141.45
2018-11-07T09:49:52.139Z,130.07
2018-11-07T09:52:46.937Z,141.23
2018-11-07T09:55:40.832Z,133.25
2018-11-07T09:58:34.734Z,133.17
2018-11-07T10:01:28.666Z,133.30
2018-11-07T10:04:24.384Z,133.37
2018-11-07T10:07:18.267Z,139.03
2018-11-07T10:10:15.684Z,145.30
2018-11-07T10:13:09.395Z,137.20
2018-11-07T10:16:03.270Z,134.23
2018-11-07T10:18:56.866Z,137.70
2018-11-07T10:21:50.562Z,139.03
2018-11-07T10:24:43.980Z,134.23
2018-11-07T10:27:38.240Z,134.18
2018-11-07T10:30:31.908Z,136.65
2018-11-07T10:33:27.451Z,130.20
2018-11-07T10:36:21.124Z,132.37
2018-11-07T10:39:16.125Z,128.15
2018-11-07T10:42:10.625Z,127.13
2018-11-07T10:45:04.701Z,137.43
2018-11-07T10:47:58.882Z,130.07
2018-11-07T10:50:52.858Z,129.23
2018-11-07T10:53:47.656Z,137.10
2018-11-07T10:56:41.459Z,131.93
2018-11-07T10:59:35.410Z,128.33
2018-11-07T11:02:46.192Z,132.67
2018-11-07T11:05:39.657Z,126.77
2018-11-07T11:08:33.533Z,129.33
2018-11-07T11:11:29.826Z,131.47
2018-11-07T11:14:24.862Z,133.67
2018-11-07T11:17:18.466Z,136.10
2018-11-07T11:20:14.849Z,125.23
2018-11-07T11:23:10.293Z,126.92
2018-11-07T11:26:03.848Z,126.97
2018-11-07T11:28:57.723Z,133.63
2018-11-07T11:31:51.498Z,125.05
2018-11-07T11:34:45.358Z,129.10
2018-11-07T11:37:40.171Z,125.87
2018-11-07T11:40:34.718Z,129.75
2018-11-07T11:43:28.950Z,123.67
2018-11-07T11:46:22.941Z,128.27
2018-11-07T11:49:16.859Z,128.15
2018-11-07T11:52:12.319Z,128.87
2018-11-07T11:55:05.990Z,124.00
2018-11-07T11:57:59.767Z,127.17
2018-11-07T12:00:53.844Z,126.00
2018-11-07T12:03:47.927Z,124.73
2018-11-07T12:06:43.351Z,128.43
2018-11-07T12:09:37.117Z,127.80
2018-11-07T12:12:31.909Z,123.83
2018-11-07T12:15:27.041Z,129.17
2018-11-07T12:18:21.099Z,122.13
2018-11-07T12:21:15.029Z,126.60
2018-11-07T12:24:09.064Z,124.53
2018-11-07T12:27:03.160Z,125.83
2018-11-07T12:29:56.708Z,126.38
2018-11-07T12:32:51.914Z,124.18
2018-11-07T12:35:52.827Z,121.35
2018-11-07T12:38:43.458Z,125.95
2018-11-07T12:41:37.232Z,125.13
2018-11-07T12:44:30.899Z,121.40
2018-11-07T12:47:25.804Z,123.35
2018-11-07T12:50:21.236Z,128.97
2018-11-07T12:53:15.499Z,126.12
2018-11-07T12:56:10.706Z,128.10
2018-11-07T12:59:04.480Z,134.57
2018-11-07T13:02:01.225Z,133.13
2018-11-07T13:04:54.898Z,143.93
2018-11-07T13:07:53.793Z,131.32
2018-11-07T13:10:43.976Z,135.93
2018-11-07T13:13:37.550Z,150.13
2018-11-07T13:16:31.471Z,151.13
2018-11-07T13:19:25.393Z,160.33
2018-11-07T13:22:19.960Z,157.18
2018-11-07T13:25:15.819Z,153.33
2018-11-07T13:28:11.578Z,132.53
2018-11-07T13:31:05.208Z,147.53
2018-11-07T13:33:58.673Z,161.40
2018-11-07T13:36:52.568Z,159.30
2018-11-07T13:39:46.430Z,158.60
2018-11-07T13:42:40.812Z,147.73
2018-11-07T13:45:34.898Z,139.18
2018-11-07T13:48:28.773Z,143.90
2018-11-07T13:51:22.140Z,148.15
2018-11-07T13:54:16.016Z,152.70
2018-11-07T13:57:10.255Z,162.63
2018-11-07T14:00:08.886Z,184.33
2018-11-07T14:03:02.559Z,198.80
2018-11-07T14:05:57.591Z,159.37
2018-11-07T14:08:51.232Z,195.72
2018-11-07T14:11:45.108Z,160.35
2018-11-07T14:14:38.891Z,171.62
2018-11-07T14:17:32.736Z,180.80
2018-11-07T14:20:26.439Z,180.23
2018-11-07T14:23:20.828Z,173.10
2018-11-07T14:26:14.759Z,190.60
2018-11-07T14:29:08.881Z,173.37
2018-11-07T14:32:04.496Z,188.70
2018-11-07T14:34:58.270Z,162.83
2018-11-07T14:37:56.857Z,160.03
2018-11-07T14:40:52.268Z,181.70
2018-11-07T14:43:48.012Z,167.93
2018-11-07T14:46:44.630Z,169.80
2018-11-07T14:49:38.608Z,166.33
2018-11-07T14:52:32.291Z,172.03
2018-11-07T14:55:25.848Z,161.57
2018-11-07T14:58:20.445Z,162.47
2018-11-07T15:01:14.218Z,162.23
2018-11-07T15:04:11.256Z,163.57
2018-11-07T15:07:04.937Z,166.97
2018-11-07T15:10:01.418Z,205.25
2018-11-07T15:12:55.166Z,180.45
2018-11-07T15:15:50.047Z,185.93
2018-11-07T15:18:43.925Z,160.97
2018-11-07T15:21:39.745Z,175.87
2018-11-07T15:24:33.716Z,168.47
2018-11-07T15:27:27.397Z,171.60
2018-11-07T15:30:26.105Z,177.78
2018-11-07T15:33:19.962Z,188.32
2018-11-07T15:36:14.885Z,187.97
2018-11-07T15:39:10.227Z,189.25
2018-11-07T15:42:03.742Z,208.70
2018-11-07T15:44:57.412Z,169.47
2018-11-07T15:47:50.690Z,191.10
2018-11-07T15:51:00.937Z,243.12
2018-11-07T15:53:54.612Z,205.45
2018-11-07T15:56:48.640Z,239.10
2018-11-07T15:59:42.669Z,213.40
2018-11-07T16:02:36.555Z,225.17
2018-11-07T16:05:30.111Z,250.53
2018-11-07T16:08:23.988Z,248.97
2018-11-07T16:11:18.377Z,287.20
2018-11-07T16:14:16.883Z,290.17
2018-11-07T16:17:13.630Z,280.43
2018-11-07T16:20:04.748Z,298.25
2018-11-07T16:23:00.084Z,325.03
2018-11-07T16:25:54.056Z,255.55
2018-11-07T16:28:47.581Z,248.63
2018-11-07T16:31:41.678Z,246.65
2018-11-07T16:34:35.740Z,286.62
2018-11-07T16:37:29.525Z,301.42
2018-11-07T16:40:23.145Z,275.45
2018-11-07T16:43:17.059Z,237.78
2018-11-07T16:46:20.088Z,241.63
2018-11-07T16:49:14.034Z,264.02
2018-11-07T16:52:08.519Z,238.15
2018-11-07T16:55:02.290Z,266.70
2018-11-07T16:57:56.943Z,310.23
2018-11-07T17:00:50.663Z,273.10
2018-11-07T17:03:44.330Z,309.13
2018-11-07T17:06:37.697Z,250.80
2018-11-07T17:09:33.115Z,311.80
2018-11-07T17:12:26.985Z,321.10
2018-11-07T17:15:24.488Z,330.27
2018-11-07T17:18:14.636Z,329.70
2018-11-07T17:21:08.203Z,307.57
2018-11-07T17:24:01.828Z,297.65
2018-11-07T17:26:55.657Z,307.97
2018-11-07T17:29:49.320Z,300.10
2018-11-07T17:32:42.788Z,294.53
2018-11-07T17:35:36.357Z,294.47
2018-11-07T17:38:29.746Z,283.37
2018-11-07T17:41:23.947Z,281.63
2018-11-07T17:44:17.882Z,283.23
2018-11-07T17:47:11.972Z,289.03
2018-11-07T17:50:05.838Z,299.50
2018-11-07T17:53:01.047Z,285.83
2018-11-07T17:55:54.687Z,282.30
2018-11-07T17:58:54.498Z,276.40
2018-11-07T18:01:48.622Z,282.70
2018-11-07T18:04:42.696Z,297.93
2018-11-07T18:07:36.263Z,286.13
2018-11-07T18:10:29.867Z,295.05
2018-11-07T18:13:24.339Z,270.93
2018-11-07T18:16:21.187Z,290.27
2018-11-07T18:19:15.378Z,275.45
2018-11-07T18:22:09.340Z,276.70
2018-11-07T18:25:03.413Z,277.00
2018-11-07T18:27:57.197Z,285.00
2018-11-07T18:30:51.173Z,283.03
2018-11-07T18:33:44.636Z,282.07
2018-11-07T18:36:38.304Z,278.80
2018-11-07T18:39:34.537Z,280.60
2018-11-07T18:42:28.412Z,278.88
2018-11-07T18:45:23.415Z,281.43
2018-11-07T18:48:17.215Z,276.03
2018-11-07T18:51:10.862Z,277.13
2018-11-07T18:54:04.898Z,263.23
2018-11-07T18:56:58.224Z,261.32
2018-11-07T18:59:52.286Z,260.10
2018-11-07T19:02:46.672Z,260.23
2018-11-07T19:05:40.242Z,257.80
2018-11-07T19:08:36.575Z,249.50
2018-11-07T19:11:30.453Z,240.30
2018-11-07T19:14:24.023Z,238.68
2018-11-07T19:17:17.778Z,250.38
2018-11-07T19:20:12.904Z,239.65
2018-11-07T19:23:06.571Z,238.07
2018-11-07T19:26:00.655Z,230.40
2018-11-07T19:28:54.634Z,232.50
2018-11-07T19:31:48.408Z,236.77
2018-11-07T19:34:42.562Z,238.57
2018-11-07T19:37:37.832Z,230.15
2018-11-07T19:40:31.776Z,237.23
2018-11-07T19:43:25.449Z,233.80
2018-11-07T19:46:19.132Z,220.82
2018-11-07T19:49:12.879Z,223.78
2018-11-07T19:52:06.673Z,221.30
2018-11-07T19:55:00.875Z,218.02
2018-11-07T19:58:04.275Z,210.90
2018-11-07T20:00:58.158Z,216.63
2018-11-07T20:03:54.974Z,205.43
2018-11-07T20:06:51.717Z,203.80
2018-11-07T20:09:45.182Z,203.15
2018-11-07T20:12:38.956Z,208.20
2018-11-07T20:15:32.630Z,197.78
2018-11-07T20:18:26.210Z,215.77
2018-11-07T20:21:19.975Z,207.30
2018-11-07T20:24:13.850Z,217.53
2018-11-07T20:27:07.826Z,203.57
2018-11-07T20:30:02.012Z,197.35
2018-11-07T20:32:57.833Z,195.67
2018-11-07T20:35:52.226Z,206.97
2018-11-07T20:38:45.789Z,187.63
2018-11-07T20:41:39.574Z,201.95
2018-11-07T20:44:33.753Z,186.67
2018-11-07T20:47:27.827Z,193.63
2018-11-07T20:50:22.974Z,192.97
2018-11-07T20:53:16.621Z,175.00
2018-11-07T20:56:10.790Z,174.15
2018-11-07T20:59:04.578Z,180.70
2018-11-07T21:01:58.660Z,171.32
2018-11-07T21:04:52.211Z,168.03
2018-11-07T21:07:46.295Z,163.60
2018-11-07T21:10:40.373Z,177.83
2018-11-07T21:13:34.353Z,165.00
2018-11-07T21:16:28.751Z,165.20
2018-11-07T21:19:22.311Z,156.53
2018-11-07T21:22:16.607Z,164.70
2018-11-07T21:25:10.678Z,163.57
2018-11-07T21:28:06.092Z,166.17
2018-11-07T21:31:01.423Z,166.95
2018-11-07T21:33:55.587Z,155.97
2018-11-07T21:36:51.219Z,173.30
2018-11-07T21:39:45.911Z,149.70
2018-11-07T21:42:39.497Z,160.13
2018-11-07T21:45:33.450Z,153.97
2018-11-07T21:48:27.435Z,153.18
2018-11-07T21:51:21.204Z,151.07
2018-11-07T21:54:14.931Z,157.40
2018-11-07T21:57:08.438Z,146.60
2018-11-07T22:00:02.204Z,149.27
2018-11-07T22:02:56.211Z,150.00
2018-11-07T22:05:50.784Z,150.47
2018-11-07T22:08:45.023Z,140.90
2018-11-07T22:11:38.620Z,146.87
2018-11-07T22:14:32.517Z,138.12
2018-11-07T22:17:26.394Z,139.88
2018-11-07T22:20:26.924Z,136.37
2018-11-07T22:23:22.643Z,146.40
2018-11-07T22:26:16.132Z,144.03
2018-11-07T22:29:10.192Z,139.10
2018-11-07T22:32:04.171Z,143.70
2018-11-07T22:34:59.066Z,141.40
2018-11-07T22:37:53.766Z,146.63
2018-11-07T22:40:49.177Z,135.70
2018-11-07T22:43:43.159Z,143.83
2018-11-07T22:46:36.829Z,141.30
2018-11-07T22:49:30.401Z,136.97
2018-11-07T22:52:25.196Z,141.43
2018-11-07T22:55:19.073Z,134.30
2018-11-07T22:58:12.745Z,132.35
2018-11-07T23:01:26.179Z,137.43
2018-11-07T23:04:20.054Z,135.10
2018-11-07T23:07:14.144Z,129.43
2018-11-07T23:10:09.810Z,139.67
2018-11-07T23:13:03.527Z,128.27
2018-11-07T23:15:59.147Z,128.63
2018-11-07T23:18:53.229Z,128.12
2018-11-07T23:21:47.210Z,139.67
2018-11-07T23:24:41.091Z,127.83
2018-11-07T23:27:38.235Z,132.63
2018-11-07T23:30:31.988Z,129.63
2018-11-07T23:33:25.577Z,131.87
2018-11-07T23:36:19.148Z,136.47
2018-11-07T23:39:13.635Z,141.17
2018-11-07T23:42:07.923Z,134.67
2018-11-07T23:45:01.903Z,137.77
2018-11-07T23:47:55.779Z,125.73
2018-11-07T23:50:49.551Z,133.23
2018-11-07T23:53:43.334Z,131.23
2018-11-07T23:56:38.429Z,124.17
2018-11-07T23:59:32.327Z,137.43
